sensor_id;sensor_type;location;lat;lon;timestamp;temperature;humidity
27164;DHT22;14685;50.618;7.024;2022-12-13T00:01:32;0.80;99.90
27164;DHT22;14685;50.618;7.024;2022-12-13T00:04:01;0.70;99.90
27164;DHT22;14685;50.618;7.024;2022-12-13T00:06:29;0.60;99.90
27164;DHT22;14685;50.618;7.024;2022-12-13T00:08:57;0.60;99.90
27164;DHT22;14685;50.618;7.024;2022-12-13T00:11:26;0.50;99.90
27164;DHT22;14685;50.618;7.024;2022-12-13T00:13:53;0.50;99.90
27164;DHT22;14685;50.618;7.024;2022-12-13T00:16:23;0.50;99.90
27164;DHT22;14685;50.618;7.024;2022-12-13T00:18:53;0.50;99.90
27164;DHT22;14685;50.618;7.024;2022-12-13T00:21:23;0.50;99.90
27164;DHT22;14685;50.618;7.024;2022-12-13T00:23:50;0.50;99.90
27164;DHT22;14685;50.618;7.024;2022-12-13T00:26:19;0.50;99.90
27164;DHT22;14685;50.618;7.024;2022-12-13T00:28:47;0.50;99.90
27164;DHT22;14685;50.618;7.024;2022-12-13T00:31:16;0.50;99.90
27164;DHT22;14685;50.618;7.024;2022-12-13T00:34:03;0.50;99.90
27164;DHT22;14685;50.618;7.024;2022-12-13T00:36:30;0.50;99.90
27164;DHT22;14685;50.618;7.024;2022-12-13T00:38:57;0.50;99.90
27164;DHT22;14685;50.618;7.024;2022-12-13T00:41:29;0.60;99.90
27164;DHT22;14685;50.618;7.024;2022-12-13T00:43:57;0.60;99.90
27164;DHT22;14685;50.618;7.024;2022-12-13T00:46:25;0.60;99.90
27164;DHT22;14685;50.618;7.024;2022-12-13T00:48:54;0.60;99.90
27164;DHT22;14685;50.618;7.024;2022-12-13T00:51:22;0.60;99.90
27164;DHT22;14685;50.618;7.024;2022-12-13T00:53:49;0.70;99.90
27164;DHT22;14685;50.618;7.024;2022-12-13T00:56:18;0.70;99.90
27164;DHT22;14685;50.618;7.024;2022-12-13T00:58:48;0.70;99.90
27164;DHT22;14685;50.618;7.024;2022-12-13T01:01:20;0.80;99.90
27164;DHT22;14685;50.618;7.024;2022-12-13T01:03:47;0.80;99.90
27164;DHT22;14685;50.618;7.024;2022-12-13T01:06:17;0.80;99.90
27164;DHT22;14685;50.618;7.024;2022-12-13T01:08:45;0.90;99.90
27164;DHT22;14685;50.618;7.024;2022-12-13T01:11:13;0.90;99.90
27164;DHT22;14685;50.618;7.024;2022-12-13T01:13:40;0.90;99.90
27164;DHT22;14685;50.618;7.024;2022-12-13T01:16:10;0.90;99.90
27164;DHT22;14685;50.618;7.024;2022-12-13T01:19:02;0.90;99.90
27164;DHT22;14685;50.618;7.024;2022-12-13T01:21:29;0.90;99.90
27164;DHT22;14685;50.618;7.024;2022-12-13T01:24:00;0.90;99.90
27164;DHT22;14685;50.618;7.024;2022-12-13T01:26:27;0.90;99.90
27164;DHT22;14685;50.618;7.024;2022-12-13T01:28:55;0.90;99.90
27164;DHT22;14685;50.618;7.024;2022-12-13T01:31:21;0.90;99.90
27164;DHT22;14685;50.618;7.024;2022-12-13T01:33:48;0.90;99.90
27164;DHT22;14685;50.618;7.024;2022-12-13T01:36:18;0.90;99.90
27164;DHT22;14685;50.618;7.024;2022-12-13T01:38:54;0.90;99.90
27164;DHT22;14685;50.618;7.024;2022-12-13T01:41:25;0.90;99.90
27164;DHT22;14685;50.618;7.024;2022-12-13T01:43:57;0.90;99.90
27164;DHT22;14685;50.618;7.024;2022-12-13T01:46:27;0.90;99.90
27164;DHT22;14685;50.618;7.024;2022-12-13T01:51:52;0.90;99.90
27164;DHT22;14685;50.618;7.024;2022-12-13T01:54:24;0.90;99.90
27164;DHT22;14685;50.618;7.024;2022-12-13T01:57:02;0.90;99.90
27164;DHT22;14685;50.618;7.024;2022-12-13T01:59:30;0.90;99.90
27164;DHT22;14685;50.618;7.024;2022-12-13T02:01:58;0.90;99.90
27164;DHT22;14685;50.618;7.024;2022-12-13T02:04:33;0.90;99.90
27164;DHT22;14685;50.618;7.024;2022-12-13T02:07:12;0.90;99.90
27164;DHT22;14685;50.618;7.024;2022-12-13T02:09:48;0.90;99.90
27164;DHT22;14685;50.618;7.024;2022-12-13T02:12:23;0.80;99.90
27164;DHT22;14685;50.618;7.024;2022-12-13T02:14:57;0.70;99.90
27164;DHT22;14685;50.618;7.024;2022-12-13T02:20:47;0.80;99.90
27164;DHT22;14685;50.618;7.024;2022-12-13T02:37:48;0.70;99.90
27164;DHT22;14685;50.618;7.024;2022-12-13T02:40:25;0.70;99.90
27164;DHT22;14685;50.618;7.024;2022-12-13T02:43:25;0.70;99.90
27164;DHT22;14685;50.618;7.024;2022-12-13T02:46:00;0.60;99.90
27164;DHT22;14685;50.618;7.024;2022-12-13T02:48:31;0.50;99.90
27164;DHT22;14685;50.618;7.024;2022-12-13T02:51:02;0.40;99.90
27164;DHT22;14685;50.618;7.024;2022-12-13T02:53:31;0.40;99.90
27164;DHT22;14685;50.618;7.024;2022-12-13T02:56:00;0.40;99.90
27164;DHT22;14685;50.618;7.024;2022-12-13T02:58:32;0.40;99.90
27164;DHT22;14685;50.618;7.024;2022-12-13T03:04:15;0.40;99.90
27164;DHT22;14685;50.618;7.024;2022-12-13T03:07:18;0.40;99.90
27164;DHT22;14685;50.618;7.024;2022-12-13T03:10:01;0.40;99.90
27164;DHT22;14685;50.618;7.024;2022-12-13T03:12:44;0.40;99.90
27164;DHT22;14685;50.618;7.024;2022-12-13T03:15:53;0.40;99.90
27164;DHT22;14685;50.618;7.024;2022-12-13T03:18:23;0.30;99.90
27164;DHT22;14685;50.618;7.024;2022-12-13T03:20:55;0.30;99.90
27164;DHT22;14685;50.618;7.024;2022-12-13T03:23:24;0.30;99.90
27164;DHT22;14685;50.618;7.024;2022-12-13T03:25:53;0.30;99.90
27164;DHT22;14685;50.618;7.024;2022-12-13T03:28:21;0.30;99.90
27164;DHT22;14685;50.618;7.024;2022-12-13T03:30:49;0.40;99.90
27164;DHT22;14685;50.618;7.024;2022-12-13T03:33:16;0.40;99.90
27164;DHT22;14685;50.618;7.024;2022-12-13T03:35:43;0.40;99.90
27164;DHT22;14685;50.618;7.024;2022-12-13T03:38:13;0.40;99.90
27164;DHT22;14685;50.618;7.024;2022-12-13T03:40:51;0.50;99.90
27164;DHT22;14685;50.618;7.024;2022-12-13T03:43:19;0.50;99.90
27164;DHT22;14685;50.618;7.024;2022-12-13T03:45:48;0.50;99.90
27164;DHT22;14685;50.618;7.024;2022-12-13T03:48:16;0.50;99.90
27164;DHT22;14685;50.618;7.024;2022-12-13T03:50:51;0.60;99.90
27164;DHT22;14685;50.618;7.024;2022-12-13T03:53:19;0.60;99.90
27164;DHT22;14685;50.618;7.024;2022-12-13T03:55:57;0.50;99.90
27164;DHT22;14685;50.618;7.024;2022-12-13T03:58:27;0.50;99.90
27164;DHT22;14685;50.618;7.024;2022-12-13T04:01:11;0.50;99.90
27164;DHT22;14685;50.618;7.024;2022-12-13T04:03:42;0.40;99.90
27164;DHT22;14685;50.618;7.024;2022-12-13T04:06:11;0.50;99.90
27164;DHT22;14685;50.618;7.024;2022-12-13T04:08:50;0.40;99.90
27164;DHT22;14685;50.618;7.024;2022-12-13T04:11:18;0.40;99.90
27164;DHT22;14685;50.618;7.024;2022-12-13T04:14:09;0.40;99.90
27164;DHT22;14685;50.618;7.024;2022-12-13T04:16:38;0.40;99.90
27164;DHT22;14685;50.618;7.024;2022-12-13T04:19:05;0.40;99.90
27164;DHT22;14685;50.618;7.024;2022-12-13T04:21:32;0.30;99.90
27164;DHT22;14685;50.618;7.024;2022-12-13T04:23:58;0.40;99.90
27164;DHT22;14685;50.618;7.024;2022-12-13T04:26:28;0.40;99.90
27164;DHT22;14685;50.618;7.024;2022-12-13T04:28:55;0.30;99.90
27164;DHT22;14685;50.618;7.024;2022-12-13T04:31:23;0.30;99.90
27164;DHT22;14685;50.618;7.024;2022-12-13T04:33:50;0.30;99.90
27164;DHT22;14685;50.618;7.024;2022-12-13T04:36:17;0.30;99.90
27164;DHT22;14685;50.618;7.024;2022-12-13T04:38:59;0.30;99.90
27164;DHT22;14685;50.618;7.024;2022-12-13T04:41:27;0.40;99.90
27164;DHT22;14685;50.618;7.024;2022-12-13T04:44:00;0.40;99.90
27164;DHT22;14685;50.618;7.024;2022-12-13T04:46:27;0.50;99.90
27164;DHT22;14685;50.618;7.024;2022-12-13T04:48:55;0.50;99.90
27164;DHT22;14685;50.618;7.024;2022-12-13T04:51:23;0.50;99.90
27164;DHT22;14685;50.618;7.024;2022-12-13T04:53:50;0.50;99.90
27164;DHT22;14685;50.618;7.024;2022-12-13T04:56:19;0.40;99.90
27164;DHT22;14685;50.618;7.024;2022-12-13T04:58:47;0.40;99.90
27164;DHT22;14685;50.618;7.024;2022-12-13T05:01:15;0.50;99.90
27164;DHT22;14685;50.618;7.024;2022-12-13T05:03:42;0.40;99.90
27164;DHT22;14685;50.618;7.024;2022-12-13T05:06:12;0.40;99.90
27164;DHT22;14685;50.618;7.024;2022-12-13T05:08:53;0.50;99.90
27164;DHT22;14685;50.618;7.024;2022-12-13T05:11:26;0.50;99.90
27164;DHT22;14685;50.618;7.024;2022-12-13T05:14:01;0.50;99.90
27164;DHT22;14685;50.618;7.024;2022-12-13T05:16:29;0.50;99.90
27164;DHT22;14685;50.618;7.024;2022-12-13T05:18:56;0.50;99.90
27164;DHT22;14685;50.618;7.024;2022-12-13T05:21:26;0.50;99.90
27164;DHT22;14685;50.618;7.024;2022-12-13T05:23:54;0.50;99.90
27164;DHT22;14685;50.618;7.024;2022-12-13T05:26:22;0.50;99.90
27164;DHT22;14685;50.618;7.024;2022-12-13T05:28:49;0.40;99.90
27164;DHT22;14685;50.618;7.024;2022-12-13T05:31:15;0.50;99.90
27164;DHT22;14685;50.618;7.024;2022-12-13T05:33:50;0.40;99.90
27164;DHT22;14685;50.618;7.024;2022-12-13T05:36:17;0.40;99.90
27164;DHT22;14685;50.618;7.024;2022-12-13T05:38:44;0.50;99.90
27164;DHT22;14685;50.618;7.024;2022-12-13T05:41:14;0.40;99.90
27164;DHT22;14685;50.618;7.024;2022-12-13T05:43:42;0.50;99.90
27164;DHT22;14685;50.618;7.024;2022-12-13T05:46:10;0.50;99.90
27164;DHT22;14685;50.618;7.024;2022-12-13T05:48:38;0.50;99.90
27164;DHT22;14685;50.618;7.024;2022-12-13T05:51:06;0.50;99.90
27164;DHT22;14685;50.618;7.024;2022-12-13T05:53:40;0.50;99.90
27164;DHT22;14685;50.618;7.024;2022-12-13T05:56:09;0.50;99.90
27164;DHT22;14685;50.618;7.024;2022-12-13T05:58:38;0.50;99.90
27164;DHT22;14685;50.618;7.024;2022-12-13T06:01:10;0.40;99.90
27164;DHT22;14685;50.618;7.024;2022-12-13T06:03:37;0.40;99.90
27164;DHT22;14685;50.618;7.024;2022-12-13T06:06:06;0.50;99.90
27164;DHT22;14685;50.618;7.024;2022-12-13T06:08:34;0.40;99.90
27164;DHT22;14685;50.618;7.024;2022-12-13T06:11:03;0.40;99.90
27164;DHT22;14685;50.618;7.024;2022-12-13T06:13:41;0.40;99.90
27164;DHT22;14685;50.618;7.024;2022-12-13T06:16:11;0.40;99.90
27164;DHT22;14685;50.618;7.024;2022-12-13T06:18:50;0.30;99.90
27164;DHT22;14685;50.618;7.024;2022-12-13T06:21:29;0.40;99.90
27164;DHT22;14685;50.618;7.024;2022-12-13T06:24:16;0.40;99.90
27164;DHT22;14685;50.618;7.024;2022-12-13T06:26:44;0.50;99.90
27164;DHT22;14685;50.618;7.024;2022-12-13T06:29:17;0.50;99.90
27164;DHT22;14685;50.618;7.024;2022-12-13T06:32:00;0.60;99.90
27164;DHT22;14685;50.618;7.024;2022-12-13T06:34:34;0.60;99.90
27164;DHT22;14685;50.618;7.024;2022-12-13T06:37:09;0.60;99.90
27164;DHT22;14685;50.618;7.024;2022-12-13T06:39:37;0.60;99.90
27164;DHT22;14685;50.618;7.024;2022-12-13T06:42:05;0.60;99.90
27164;DHT22;14685;50.618;7.024;2022-12-13T06:44:33;0.60;99.90
27164;DHT22;14685;50.618;7.024;2022-12-13T06:47:00;0.60;99.90
27164;DHT22;14685;50.618;7.024;2022-12-13T06:49:39;0.50;99.90
27164;DHT22;14685;50.618;7.024;2022-12-13T06:52:08;0.40;99.90
27164;DHT22;14685;50.618;7.024;2022-12-13T06:54:37;0.40;99.90
27164;DHT22;14685;50.618;7.024;2022-12-13T06:57:08;0.30;99.90
27164;DHT22;14685;50.618;7.024;2022-12-13T06:59:35;0.30;99.90
27164;DHT22;14685;50.618;7.024;2022-12-13T07:02:02;0.30;99.90
27164;DHT22;14685;50.618;7.024;2022-12-13T07:04:30;0.30;99.90
27164;DHT22;14685;50.618;7.024;2022-12-13T07:06:58;0.40;99.90
27164;DHT22;14685;50.618;7.024;2022-12-13T07:09:27;0.30;99.90
27164;DHT22;14685;50.618;7.024;2022-12-13T07:11:54;0.30;99.90
27164;DHT22;14685;50.618;7.024;2022-12-13T07:14:20;0.30;99.90
27164;DHT22;14685;50.618;7.024;2022-12-13T07:16:47;0.40;99.90
27164;DHT22;14685;50.618;7.024;2022-12-13T07:19:14;0.40;99.90
27164;DHT22;14685;50.618;7.024;2022-12-13T07:21:50;0.30;99.90
27164;DHT22;14685;50.618;7.024;2022-12-13T07:24:17;0.30;99.90
27164;DHT22;14685;50.618;7.024;2022-12-13T07:26:44;0.30;99.90
27164;DHT22;14685;50.618;7.024;2022-12-13T07:29:12;0.30;99.90
27164;DHT22;14685;50.618;7.024;2022-12-13T07:31:50;0.30;99.90
27164;DHT22;14685;50.618;7.024;2022-12-13T07:34:17;0.30;99.90
27164;DHT22;14685;50.618;7.024;2022-12-13T07:36:44;0.30;99.90
27164;DHT22;14685;50.618;7.024;2022-12-13T07:39:10;0.20;99.90
27164;DHT22;14685;50.618;7.024;2022-12-13T07:41:37;0.20;99.90
27164;DHT22;14685;50.618;7.024;2022-12-13T07:44:05;0.10;99.90
27164;DHT22;14685;50.618;7.024;2022-12-13T07:46:36;0.10;99.90
27164;DHT22;14685;50.618;7.024;2022-12-13T07:49:03;0.00;99.90
27164;DHT22;14685;50.618;7.024;2022-12-13T07:51:32;0.00;99.90
27164;DHT22;14685;50.618;7.024;2022-12-13T07:54:00;-0.10;99.90
27164;DHT22;14685;50.618;7.024;2022-12-13T07:56:32;-0.10;99.90
27164;DHT22;14685;50.618;7.024;2022-12-13T07:58:59;-0.10;99.90
27164;DHT22;14685;50.618;7.024;2022-12-13T08:01:33;-0.10;99.90
27164;DHT22;14685;50.618;7.024;2022-12-13T08:04:01;-0.20;99.90
27164;DHT22;14685;50.618;7.024;2022-12-13T08:06:28;-0.30;99.90
27164;DHT22;14685;50.618;7.024;2022-12-13T08:08:56;-0.30;99.90
27164;DHT22;14685;50.618;7.024;2022-12-13T08:11:23;-0.40;99.90
27164;DHT22;14685;50.618;7.024;2022-12-13T08:13:50;-0.40;99.90
27164;DHT22;14685;50.618;7.024;2022-12-13T08:16:16;-0.40;99.90
27164;DHT22;14685;50.618;7.024;2022-12-13T08:18:58;-0.50;99.90
27164;DHT22;14685;50.618;7.024;2022-12-13T08:21:37;-0.60;99.90
27164;DHT22;14685;50.618;7.024;2022-12-13T08:24:23;-0.60;99.90
27164;DHT22;14685;50.618;7.024;2022-12-13T08:26:51;-0.60;99.90
27164;DHT22;14685;50.618;7.024;2022-12-13T08:29:18;-0.60;99.90
27164;DHT22;14685;50.618;7.024;2022-12-13T08:32:00;-0.50;99.90
27164;DHT22;14685;50.618;7.024;2022-12-13T08:34:27;-0.40;99.90
27164;DHT22;14685;50.618;7.024;2022-12-13T08:36:54;-0.40;99.90
27164;DHT22;14685;50.618;7.024;2022-12-13T08:39:33;-0.20;99.90
27164;DHT22;14685;50.618;7.024;2022-12-13T08:42:09;-0.10;99.90
27164;DHT22;14685;50.618;7.024;2022-12-13T08:44:50;0.00;99.90
27164;DHT22;14685;50.618;7.024;2022-12-13T08:47:26;0.10;99.90
27164;DHT22;14685;50.618;7.024;2022-12-13T08:49:57;0.10;99.90
27164;DHT22;14685;50.618;7.024;2022-12-13T08:52:32;0.20;99.90
27164;DHT22;14685;50.618;7.024;2022-12-13T08:55:10;0.20;99.90
27164;DHT22;14685;50.618;7.024;2022-12-13T08:57:39;0.30;99.90
27164;DHT22;14685;50.618;7.024;2022-12-13T09:00:13;0.30;99.90
27164;DHT22;14685;50.618;7.024;2022-12-13T09:02:40;0.40;99.90
27164;DHT22;14685;50.618;7.024;2022-12-13T09:05:08;0.40;99.90
27164;DHT22;14685;50.618;7.024;2022-12-13T09:07:36;0.40;99.90
27164;DHT22;14685;50.618;7.024;2022-12-13T09:10:05;0.40;99.90
27164;DHT22;14685;50.618;7.024;2022-12-13T09:12:53;0.40;99.90
27164;DHT22;14685;50.618;7.024;2022-12-13T09:15:30;0.50;99.90
27164;DHT22;14685;50.618;7.024;2022-12-13T09:18:01;0.50;99.90
27164;DHT22;14685;50.618;7.024;2022-12-13T09:20:30;0.50;99.90
27164;DHT22;14685;50.618;7.024;2022-12-13T09:23:07;0.50;99.90
27164;DHT22;14685;50.618;7.024;2022-12-13T09:25:56;0.60;99.90
27164;DHT22;14685;50.618;7.024;2022-12-13T09:28:32;0.60;99.90
27164;DHT22;14685;50.618;7.024;2022-12-13T09:31:00;0.70;99.90
27164;DHT22;14685;50.618;7.024;2022-12-13T09:33:28;0.70;99.90
27164;DHT22;14685;50.618;7.024;2022-12-13T09:35:57;0.70;99.90
27164;DHT22;14685;50.618;7.024;2022-12-13T09:38:29;0.70;99.90
27164;DHT22;14685;50.618;7.024;2022-12-13T09:41:20;0.80;99.90
27164;DHT22;14685;50.618;7.024;2022-12-13T09:43:58;0.80;99.90
27164;DHT22;14685;50.618;7.024;2022-12-13T09:46:31;0.80;99.90
27164;DHT22;14685;50.618;7.024;2022-12-13T09:49:16;0.80;99.90
27164;DHT22;14685;50.618;7.024;2022-12-13T09:51:54;0.80;99.90
27164;DHT22;14685;50.618;7.024;2022-12-13T09:54:38;0.80;99.90
27164;DHT22;14685;50.618;7.024;2022-12-13T09:57:19;0.80;99.90
27164;DHT22;14685;50.618;7.024;2022-12-13T09:59:59;0.70;99.90
27164;DHT22;14685;50.618;7.024;2022-12-13T10:02:29;0.80;99.90
27164;DHT22;14685;50.618;7.024;2022-12-13T10:05:20;1.00;99.90
27164;DHT22;14685;50.618;7.024;2022-12-13T10:08:11;1.00;99.90
27164;DHT22;14685;50.618;7.024;2022-12-13T10:10:39;1.10;99.90
27164;DHT22;14685;50.618;7.024;2022-12-13T10:13:17;1.10;99.90
27164;DHT22;14685;50.618;7.024;2022-12-13T10:16:02;1.20;99.90
27164;DHT22;14685;50.618;7.024;2022-12-13T10:18:37;1.20;99.90
27164;DHT22;14685;50.618;7.024;2022-12-13T10:21:12;1.20;99.90
27164;DHT22;14685;50.618;7.024;2022-12-13T10:23:39;1.20;99.90
27164;DHT22;14685;50.618;7.024;2022-12-13T10:26:35;1.20;99.90
27164;DHT22;14685;50.618;7.024;2022-12-13T10:29:03;1.20;99.90
27164;DHT22;14685;50.618;7.024;2022-12-13T10:31:39;1.30;99.90
27164;DHT22;14685;50.618;7.024;2022-12-13T10:34:26;1.20;99.90
27164;DHT22;14685;50.618;7.024;2022-12-13T10:36:55;1.20;99.90
27164;DHT22;14685;50.618;7.024;2022-12-13T10:39:39;1.20;99.90
27164;DHT22;14685;50.618;7.024;2022-12-13T10:42:15;1.30;99.90
27164;DHT22;14685;50.618;7.024;2022-12-13T10:45:14;1.30;99.90
27164;DHT22;14685;50.618;7.024;2022-12-13T10:47:42;1.30;99.90
27164;DHT22;14685;50.618;7.024;2022-12-13T10:50:26;1.30;99.90
27164;DHT22;14685;50.618;7.024;2022-12-13T10:52:55;1.30;99.90
27164;DHT22;14685;50.618;7.024;2022-12-13T10:55:31;1.30;99.90
27164;DHT22;14685;50.618;7.024;2022-12-13T10:58:02;1.20;99.90
27164;DHT22;14685;50.618;7.024;2022-12-13T11:03:05;1.20;99.90
27164;DHT22;14685;50.618;7.024;2022-12-13T11:05:35;1.20;99.90
27164;DHT22;14685;50.618;7.024;2022-12-13T11:08:21;1.20;99.90
27164;DHT22;14685;50.618;7.024;2022-12-13T11:10:59;1.20;99.90
27164;DHT22;14685;50.618;7.024;2022-12-13T11:13:43;1.20;99.90
27164;DHT22;14685;50.618;7.024;2022-12-13T11:16:38;1.30;99.90
27164;DHT22;14685;50.618;7.024;2022-12-13T11:19:31;1.20;99.90
27164;DHT22;14685;50.618;7.024;2022-12-13T11:22:01;1.30;99.90
27164;DHT22;14685;50.618;7.024;2022-12-13T11:24:31;1.30;99.90
27164;DHT22;14685;50.618;7.024;2022-12-13T11:27:20;1.30;99.90
27164;DHT22;14685;50.618;7.024;2022-12-13T11:30:11;1.30;99.90
27164;DHT22;14685;50.618;7.024;2022-12-13T11:33:13;1.40;99.90
27164;DHT22;14685;50.618;7.024;2022-12-13T11:47:27;1.60;99.90
27164;DHT22;14685;50.618;7.024;2022-12-13T11:49:57;1.50;99.90
27164;DHT22;14685;50.618;7.024;2022-12-13T11:52:29;1.50;99.90
27164;DHT22;14685;50.618;7.024;2022-12-13T11:55:10;1.50;99.90
27164;DHT22;14685;50.618;7.024;2022-12-13T12:00:47;1.50;99.90
27164;DHT22;14685;50.618;7.024;2022-12-13T12:03:21;1.60;99.90
27164;DHT22;14685;50.618;7.024;2022-12-13T12:05:59;1.60;99.90
27164;DHT22;14685;50.618;7.024;2022-12-13T12:08:56;1.60;99.90
27164;DHT22;14685;50.618;7.024;2022-12-13T12:17:14;1.80;99.90
27164;DHT22;14685;50.618;7.024;2022-12-13T12:19:44;1.70;99.90
27164;DHT22;14685;50.618;7.024;2022-12-13T12:38:42;1.70;99.90
27164;DHT22;14685;50.618;7.024;2022-12-13T12:44:18;1.90;99.90
27164;DHT22;14685;50.618;7.024;2022-12-13T12:49:47;2.00;99.90
27164;DHT22;14685;50.618;7.024;2022-12-13T12:52:38;2.10;99.90
27164;DHT22;14685;50.618;7.024;2022-12-13T12:55:44;2.10;99.90
27164;DHT22;14685;50.618;7.024;2022-12-13T13:01:27;2.00;99.90
27164;DHT22;14685;50.618;7.024;2022-12-13T13:04:17;2.00;99.90
27164;DHT22;14685;50.618;7.024;2022-12-13T13:06:59;2.00;99.90
27164;DHT22;14685;50.618;7.024;2022-12-13T13:09:50;2.00;99.90
27164;DHT22;14685;50.618;7.024;2022-12-13T13:12:21;2.00;99.90
27164;DHT22;14685;50.618;7.024;2022-12-13T13:14:56;2.00;99.90
27164;DHT22;14685;50.618;7.024;2022-12-13T13:20:16;2.00;99.90
27164;DHT22;14685;50.618;7.024;2022-12-13T13:22:45;2.00;99.90
27164;DHT22;14685;50.618;7.024;2022-12-13T13:25:31;2.00;99.90
27164;DHT22;14685;50.618;7.024;2022-12-13T13:28:26;2.00;99.90
27164;DHT22;14685;50.618;7.024;2022-12-13T13:31:19;2.00;99.90
27164;DHT22;14685;50.618;7.024;2022-12-13T13:33:47;2.00;99.90
27164;DHT22;14685;50.618;7.024;2022-12-13T13:39:17;1.90;99.90
27164;DHT22;14685;50.618;7.024;2022-12-13T13:55:18;1.90;99.90
27164;DHT22;14685;50.618;7.024;2022-12-13T14:27:27;2.00;99.90
27164;DHT22;14685;50.618;7.024;2022-12-13T14:29:36;2.00;99.90
27164;DHT22;14685;50.618;7.024;2022-12-13T14:32:22;2.00;99.90
27164;DHT22;14685;50.618;7.024;2022-12-13T14:34:52;2.00;99.90
27164;DHT22;14685;50.618;7.024;2022-12-13T14:37:29;2.10;99.90
27164;DHT22;14685;50.618;7.024;2022-12-13T14:39:58;2.00;99.90
27164;DHT22;14685;50.618;7.024;2022-12-13T14:42:31;2.00;99.90
27164;DHT22;14685;50.618;7.024;2022-12-13T14:45:14;2.00;99.90
27164;DHT22;14685;50.618;7.024;2022-12-13T14:47:43;2.00;99.90
27164;DHT22;14685;50.618;7.024;2022-12-13T14:50:11;2.10;99.90
27164;DHT22;14685;50.618;7.024;2022-12-13T14:52:42;2.10;99.90
27164;DHT22;14685;50.618;7.024;2022-12-13T14:55:33;2.10;99.90
27164;DHT22;14685;50.618;7.024;2022-12-13T14:58:13;2.10;99.90
27164;DHT22;14685;50.618;7.024;2022-12-13T15:00:41;2.00;99.90
27164;DHT22;14685;50.618;7.024;2022-12-13T15:03:23;2.00;99.90
27164;DHT22;14685;50.618;7.024;2022-12-13T15:05:59;2.00;99.90
27164;DHT22;14685;50.618;7.024;2022-12-13T15:08:27;2.10;99.90
27164;DHT22;14685;50.618;7.024;2022-12-13T15:10:56;2.10;99.90
27164;DHT22;14685;50.618;7.024;2022-12-13T15:14:02;2.10;99.90
27164;DHT22;14685;50.618;7.024;2022-12-13T15:16:35;2.10;99.90
27164;DHT22;14685;50.618;7.024;2022-12-13T15:19:23;2.10;99.90
27164;DHT22;14685;50.618;7.024;2022-12-13T15:21:58;2.20;99.90
27164;DHT22;14685;50.618;7.024;2022-12-13T15:24:35;2.20;99.90
27164;DHT22;14685;50.618;7.024;2022-12-13T15:27:03;2.20;99.90
27164;DHT22;14685;50.618;7.024;2022-12-13T15:29:32;2.30;99.90
27164;DHT22;14685;50.618;7.024;2022-12-13T15:32:03;2.30;99.90
27164;DHT22;14685;50.618;7.024;2022-12-13T15:34:33;2.30;99.90
27164;DHT22;14685;50.618;7.024;2022-12-13T15:37:03;2.30;99.90
27164;DHT22;14685;50.618;7.024;2022-12-13T15:39:59;2.40;99.90
27164;DHT22;14685;50.618;7.024;2022-12-13T15:42:33;2.40;99.90
27164;DHT22;14685;50.618;7.024;2022-12-13T15:45:04;2.40;99.90
27164;DHT22;14685;50.618;7.024;2022-12-13T15:47:31;2.50;99.90
27164;DHT22;14685;50.618;7.024;2022-12-13T15:50:01;2.50;99.90
27164;DHT22;14685;50.618;7.024;2022-12-13T15:52:35;2.40;99.90
27164;DHT22;14685;50.618;7.024;2022-12-13T15:57:55;2.40;99.90
27164;DHT22;14685;50.618;7.024;2022-12-13T16:00:29;2.40;99.90
27164;DHT22;14685;50.618;7.024;2022-12-13T16:03:05;2.50;99.90
27164;DHT22;14685;50.618;7.024;2022-12-13T16:05:40;2.50;99.90
27164;DHT22;14685;50.618;7.024;2022-12-13T16:08:34;2.50;99.90
27164;DHT22;14685;50.618;7.024;2022-12-13T16:11:03;2.50;99.90
27164;DHT22;14685;50.618;7.024;2022-12-13T16:13:32;2.40;99.90
27164;DHT22;14685;50.618;7.024;2022-12-13T16:16:21;2.40;99.90
27164;DHT22;14685;50.618;7.024;2022-12-13T16:18:59;2.30;99.90
27164;DHT22;14685;50.618;7.024;2022-12-13T16:21:30;2.30;99.90
27164;DHT22;14685;50.618;7.024;2022-12-13T16:23:58;2.20;99.90
27164;DHT22;14685;50.618;7.024;2022-12-13T16:26:27;2.20;99.90
27164;DHT22;14685;50.618;7.024;2022-12-13T16:28:55;2.10;99.90
27164;DHT22;14685;50.618;7.024;2022-12-13T16:31:28;2.10;99.90
27164;DHT22;14685;50.618;7.024;2022-12-13T16:34:02;2.10;99.90
27164;DHT22;14685;50.618;7.024;2022-12-13T16:36:29;2.00;99.90
27164;DHT22;14685;50.618;7.024;2022-12-13T16:38:57;1.90;99.90
27164;DHT22;14685;50.618;7.024;2022-12-13T16:41:24;1.90;99.90
27164;DHT22;14685;50.618;7.024;2022-12-13T16:43:57;1.90;99.90
27164;DHT22;14685;50.618;7.024;2022-12-13T16:46:24;2.00;99.90
27164;DHT22;14685;50.618;7.024;2022-12-13T16:49:21;2.00;99.90
27164;DHT22;14685;50.618;7.024;2022-12-13T16:51:50;1.80;99.90
27164;DHT22;14685;50.618;7.024;2022-12-13T16:54:20;1.70;99.90
27164;DHT22;14685;50.618;7.024;2022-12-13T16:56:47;1.80;99.90
27164;DHT22;14685;50.618;7.024;2022-12-13T16:59:18;1.80;99.90
27164;DHT22;14685;50.618;7.024;2022-12-13T17:01:46;1.80;99.90
27164;DHT22;14685;50.618;7.024;2022-12-13T17:04:22;1.70;99.90
27164;DHT22;14685;50.618;7.024;2022-12-13T17:06:50;1.70;99.90
27164;DHT22;14685;50.618;7.024;2022-12-13T17:09:21;1.70;99.90
27164;DHT22;14685;50.618;7.024;2022-12-13T17:11:48;1.70;99.90
27164;DHT22;14685;50.618;7.024;2022-12-13T17:14:14;1.70;99.90
27164;DHT22;14685;50.618;7.024;2022-12-13T17:16:42;1.80;99.90
27164;DHT22;14685;50.618;7.024;2022-12-13T17:19:10;1.80;99.90
27164;DHT22;14685;50.618;7.024;2022-12-13T17:21:37;1.80;99.90
27164;DHT22;14685;50.618;7.024;2022-12-13T17:24:04;1.80;99.90
27164;DHT22;14685;50.618;7.024;2022-12-13T17:26:31;1.80;99.90
27164;DHT22;14685;50.618;7.024;2022-12-13T17:29:00;1.90;99.90
27164;DHT22;14685;50.618;7.024;2022-12-13T17:31:27;1.80;99.90
27164;DHT22;14685;50.618;7.024;2022-12-13T17:34:02;1.80;99.90
27164;DHT22;14685;50.618;7.024;2022-12-13T17:36:30;1.80;99.90
27164;DHT22;14685;50.618;7.024;2022-12-13T17:38:57;1.80;99.90
27164;DHT22;14685;50.618;7.024;2022-12-13T17:41:24;1.80;99.90
27164;DHT22;14685;50.618;7.024;2022-12-13T17:43:51;1.70;99.90
27164;DHT22;14685;50.618;7.024;2022-12-13T17:46:18;1.70;99.90
27164;DHT22;14685;50.618;7.024;2022-12-13T17:48:45;1.80;99.90
27164;DHT22;14685;50.618;7.024;2022-12-13T17:51:13;1.80;99.90
27164;DHT22;14685;50.618;7.024;2022-12-13T17:53:42;1.90;99.90
27164;DHT22;14685;50.618;7.024;2022-12-13T17:56:12;1.80;99.90
27164;DHT22;14685;50.618;7.024;2022-12-13T17:58:41;1.80;99.90
27164;DHT22;14685;50.618;7.024;2022-12-13T18:01:28;1.80;99.90
27164;DHT22;14685;50.618;7.024;2022-12-13T18:03:56;1.80;99.90
27164;DHT22;14685;50.618;7.024;2022-12-13T18:06:24;1.80;99.90
27164;DHT22;14685;50.618;7.024;2022-12-13T18:08:53;1.80;99.90
27164;DHT22;14685;50.618;7.024;2022-12-13T18:11:21;1.80;99.90
27164;DHT22;14685;50.618;7.024;2022-12-13T18:14:04;1.80;99.90
27164;DHT22;14685;50.618;7.024;2022-12-13T18:16:32;1.90;99.90
27164;DHT22;14685;50.618;7.024;2022-12-13T18:19:05;1.90;99.90
27164;DHT22;14685;50.618;7.024;2022-12-13T18:21:33;1.80;99.90
27164;DHT22;14685;50.618;7.024;2022-12-13T18:24:01;1.80;99.90
27164;DHT22;14685;50.618;7.024;2022-12-13T18:26:28;1.80;99.90